createdAt,value
2023-04-24T00:01:51.273Z,14.00
2023-04-24T00:04:18.710Z,13.90
2023-04-24T00:06:50.359Z,13.90
2023-04-24T00:09:17.594Z,13.90
2023-04-24T00:11:45.032Z,13.90
2023-04-24T00:14:12.384Z,13.90
2023-04-24T00:16:40.135Z,13.90
2023-04-24T00:19:07.685Z,13.90
2023-04-24T00:21:35.009Z,13.90
2023-04-24T00:24:02.284Z,13.90
2023-04-24T00:26:29.746Z,13.90
2023-04-24T00:28:57.098Z,13.90
2023-04-24T00:31:24.479Z,13.90
2023-04-24T00:33:51.900Z,13.90
2023-04-24T00:36:21.496Z,13.80
2023-04-24T00:38:48.811Z,13.80
2023-04-24T00:41:16.554Z,13.80
2023-04-24T00:43:44.064Z,13.70
2023-04-24T00:46:12.037Z,13.70
2023-04-24T00:48:40.984Z,13.70
2023-04-24T00:51:08.404Z,13.70
2023-04-24T00:53:35.830Z,13.70
2023-04-24T00:56:04.041Z,13.70
2023-04-24T00:58:32.236Z,13.70
2023-04-24T01:01:02.020Z,13.70
2023-04-24T01:03:32.810Z,13.70
2023-04-24T01:06:00.546Z,13.60
2023-04-24T01:08:29.109Z,13.50
2023-04-24T01:10:58.836Z,13.50
2023-04-24T01:13:26.238Z,13.50
2023-04-24T01:15:53.568Z,13.40
2023-04-24T01:18:22.143Z,13.40
2023-04-24T01:20:54.021Z,13.40
2023-04-24T01:23:21.289Z,13.40
2023-04-24T01:25:50.346Z,13.40
2023-04-24T01:28:18.558Z,13.40
2023-04-24T01:30:45.933Z,13.40
2023-04-24T01:33:13.610Z,13.30
2023-04-24T01:35:41.290Z,13.20
2023-04-24T01:38:08.544Z,13.20
2023-04-24T01:40:37.045Z,13.10
2023-04-24T01:43:04.452Z,13.00
2023-04-24T01:45:31.906Z,13.00
2023-04-24T01:47:59.444Z,12.90
2023-04-24T01:50:26.940Z,12.80
2023-04-24T01:52:54.330Z,12.80
2023-04-24T01:55:21.615Z,12.70
2023-04-24T01:57:49.563Z,12.70
2023-04-24T02:00:16.842Z,12.60
2023-04-24T02:02:47.330Z,12.60
2023-04-24T02:05:16.022Z,12.50
2023-04-24T02:07:43.384Z,12.50
2023-04-24T02:10:11.384Z,12.50
2023-04-24T02:12:43.266Z,12.30
2023-04-24T02:15:11.226Z,12.10
2023-04-24T02:17:38.913Z,12.00
2023-04-24T02:20:07.715Z,12.00
2023-04-24T02:22:34.967Z,12.00
2023-04-24T02:25:03.200Z,11.90
2023-04-24T02:27:30.448Z,11.90
2023-04-24T02:29:58.630Z,11.90
2023-04-24T02:32:26.208Z,11.80
2023-04-24T02:34:53.704Z,11.70
2023-04-24T02:37:21.046Z,11.70
2023-04-24T02:39:48.254Z,11.70
2023-04-24T02:42:16.549Z,11.70
2023-04-24T02:44:43.812Z,11.70
2023-04-24T02:47:11.214Z,11.70
2023-04-24T02:49:38.484Z,11.70
2023-04-24T02:52:06.110Z,11.70
2023-04-24T02:54:33.474Z,11.70
2023-04-24T02:57:02.210Z,11.70
2023-04-24T02:59:29.950Z,11.70
2023-04-24T03:01:57.272Z,11.70
2023-04-24T03:04:24.965Z,11.70
2023-04-24T03:06:53.924Z,11.70
2023-04-24T03:09:24.555Z,11.70
2023-04-24T03:11:51.931Z,11.80
2023-04-24T03:14:19.180Z,11.80
2023-04-24T03:16:46.567Z,11.80
2023-04-24T03:19:13.876Z,11.70
2023-04-24T03:21:55.778Z,11.80
2023-04-24T03:24:23.578Z,11.70
2023-04-24T03:26:51.013Z,11.70
2023-04-24T03:29:32.535Z,11.70
2023-04-24T03:32:00.281Z,11.60
2023-04-24T03:34:27.773Z,11.70
2023-04-24T03:36:55.324Z,11.70
2023-04-24T03:39:22.945Z,11.70
2023-04-24T03:41:55.017Z,11.70
2023-04-24T03:44:27.813Z,11.70
2023-04-24T03:46:55.964Z,11.70
2023-04-24T03:49:24.729Z,11.70
2023-04-24T03:51:53.280Z,11.60
2023-04-24T03:54:24.054Z,11.60
2023-04-24T03:56:52.914Z,11.60
2023-04-24T03:59:20.802Z,11.60
2023-04-24T04:01:58.148Z,11.60
2023-04-24T04:04:26.140Z,11.60
2023-04-24T04:06:54.283Z,11.60
2023-04-24T04:09:21.856Z,11.60
2023-04-24T04:11:49.156Z,11.60
2023-04-24T04:14:16.479Z,11.60
2023-04-24T04:16:47.134Z,11.60
2023-04-24T04:19:14.733Z,11.60
2023-04-24T04:21:42.494Z,11.60
2023-04-24T04:24:25.275Z,11.60
2023-04-24T04:26:53.493Z,11.60
2023-04-24T04:29:28.262Z,11.60
2023-04-24T04:31:56.226Z,11.60
2023-04-24T04:34:24.284Z,11.60
2023-04-24T04:36:52.680Z,11.60
2023-04-24T04:39:42.456Z,11.60
2023-04-24T04:42:19.909Z,11.60
2023-04-24T04:44:47.185Z,11.60
2023-04-24T04:47:19.342Z,11.60
2023-04-24T04:49:46.959Z,11.60
2023-04-24T04:52:20.356Z,11.60
2023-04-24T04:54:52.445Z,11.60
2023-04-24T04:57:21.550Z,11.60
2023-04-24T04:59:48.982Z,11.60
2023-04-24T05:02:26.902Z,11.60
2023-04-24T05:04:58.021Z,11.60
2023-04-24T05:07:25.582Z,11.60
2023-04-24T05:09:57.959Z,11.60
2023-04-24T05:12:25.664Z,11.60
2023-04-24T05:14:54.379Z,11.70
2023-04-24T05:17:24.669Z,11.70
2023-04-24T05:19:54.302Z,11.80
2023-04-24T05:22:22.140Z,11.80
2023-04-24T05:24:52.611Z,11.70
2023-04-24T05:27:39.223Z,11.70
2023-04-24T05:30:13.219Z,11.70
2023-04-24T05:32:40.694Z,11.80
2023-04-24T05:35:08.920Z,11.80
2023-04-24T05:37:37.261Z,11.70
2023-04-24T05:40:06.445Z,11.70
2023-04-24T05:42:33.670Z,11.70
2023-04-24T05:45:01.103Z,11.70
2023-04-24T05:47:28.328Z,11.80
2023-04-24T05:49:55.838Z,11.70
2023-04-24T05:52:23.194Z,11.80
2023-04-24T05:54:51.644Z,11.80
2023-04-24T05:57:23.206Z,11.80
2023-04-24T05:59:54.608Z,11.80
2023-04-24T06:02:23.251Z,11.80
2023-04-24T06:04:53.557Z,11.80
2023-04-24T06:07:21.351Z,11.80
2023-04-24T06:09:48.595Z,11.80
2023-04-24T06:12:16.345Z,11.80
2023-04-24T06:15:01.333Z,11.80
2023-04-24T06:17:51.040Z,11.70
2023-04-24T06:20:19.536Z,11.60
2023-04-24T06:22:47.045Z,11.60
2023-04-24T06:25:14.444Z,11.50
2023-04-24T06:27:41.663Z,11.60
2023-04-24T06:30:09.825Z,11.50
2023-04-24T06:32:37.192Z,11.50
2023-04-24T06:35:05.134Z,11.50
2023-04-24T06:37:33.180Z,11.50
2023-04-24T06:40:00.590Z,11.40
2023-04-24T06:42:27.873Z,11.40
2023-04-24T06:44:56.722Z,11.40
2023-04-24T06:47:24.096Z,11.40
2023-04-24T06:49:53.361Z,11.30
2023-04-24T06:52:21.022Z,11.30
2023-04-24T06:54:48.628Z,11.30
2023-04-24T06:57:17.214Z,11.20
2023-04-24T06:59:44.833Z,11.20
2023-04-24T07:02:12.387Z,11.20
2023-04-24T07:04:39.743Z,11.20
2023-04-24T07:07:07.833Z,11.20
2023-04-24T07:09:39.451Z,11.20
2023-04-24T07:12:06.955Z,11.20
2023-04-24T07:14:34.329Z,11.30
2023-04-24T07:17:02.254Z,11.30
2023-04-24T07:19:29.463Z,11.20
2023-04-24T07:21:56.745Z,11.20
2023-04-24T07:24:25.519Z,11.20
2023-04-24T07:26:55.243Z,11.20
2023-04-24T07:29:22.495Z,11.10
2023-04-24T07:31:49.815Z,11.10
2023-04-24T07:34:17.029Z,11.10
2023-04-24T07:36:44.315Z,11.10
2023-04-24T07:39:11.572Z,11.10
2023-04-24T07:41:38.860Z,10.90
2023-04-24T07:44:06.236Z,10.80
2023-04-24T07:46:33.811Z,10.70
2023-04-24T07:49:12.291Z,10.60
2023-04-24T07:51:42.303Z,10.50
2023-04-24T07:54:09.922Z,10.40
2023-04-24T07:56:40.040Z,10.40
2023-04-24T07:59:07.643Z,10.20
2023-04-24T08:01:34.884Z,10.10
2023-04-24T08:04:02.326Z,10.10
2023-04-24T08:06:31.432Z,9.90
2023-04-24T08:09:00.508Z,9.90
2023-04-24T08:11:28.196Z,9.90
2023-04-24T08:13:55.990Z,9.80
2023-04-24T08:16:25.154Z,9.80
2023-04-24T08:18:52.889Z,9.70
2023-04-24T08:21:21.712Z,9.70
2023-04-24T08:23:49.079Z,9.60
2023-04-24T08:26:16.415Z,9.60
2023-04-24T08:28:43.872Z,9.50
2023-04-24T08:31:11.363Z,9.40
2023-04-24T08:33:38.656Z,9.40
2023-04-24T08:36:06.966Z,9.30
2023-04-24T08:38:34.935Z,9.40
2023-04-24T08:41:02.921Z,9.30
2023-04-24T08:43:30.612Z,9.30
2023-04-24T08:45:58.502Z,9.30
2023-04-24T08:48:31.331Z,9.20
2023-04-24T08:51:00.474Z,9.20
2023-04-24T08:53:28.210Z,9.20
2023-04-24T08:55:57.668Z,9.20
2023-04-24T08:58:29.029Z,9.10
2023-04-24T09:00:57.035Z,9.10
2023-04-24T09:03:24.920Z,9.00
2023-04-24T09:05:55.383Z,8.90
2023-04-24T09:08:25.612Z,8.90
2023-04-24T09:10:53.177Z,8.90
2023-04-24T09:13:21.804Z,8.90
2023-04-24T09:15:49.137Z,8.90
2023-04-24T09:18:16.416Z,8.90
2023-04-24T09:21:13.220Z,8.90
2023-04-24T09:23:40.611Z,8.90
2023-04-24T09:26:10.771Z,8.90
2023-04-24T09:28:40.748Z,9.00
2023-04-24T09:31:19.926Z,8.90
2023-04-24T09:34:02.647Z,8.90
2023-04-24T09:36:35.284Z,9.00
2023-04-24T09:39:03.519Z,9.10
2023-04-24T09:41:30.960Z,9.00
2023-04-24T09:44:11.569Z,9.10
2023-04-24T09:46:39.077Z,9.10
2023-04-24T09:49:12.071Z,9.10
2023-04-24T09:51:40.144Z,9.20
2023-04-24T09:54:18.341Z,9.20
2023-04-24T09:56:48.630Z,9.20
2023-04-24T09:59:20.790Z,9.40
2023-04-24T10:01:50.229Z,9.50
2023-04-24T10:04:24.521Z,9.60
2023-04-24T10:06:54.891Z,9.70
2023-04-24T10:09:27.403Z,9.70
2023-04-24T10:11:55.979Z,9.70
2023-04-24T10:14:25.567Z,9.80
2023-04-24T10:16:56.016Z,9.80
2023-04-24T10:19:27.190Z,9.80
2023-04-24T10:21:56.640Z,9.90
2023-04-24T10:24:24.088Z,10.00
2023-04-24T10:26:51.341Z,10.10
2023-04-24T10:29:20.048Z,10.20
2023-04-24T10:31:47.865Z,10.20
2023-04-24T10:34:17.610Z,10.10
2023-04-24T10:36:49.768Z,10.20
2023-04-24T10:39:18.042Z,10.20
2023-04-24T10:41:47.360Z,10.30
2023-04-24T10:44:16.680Z,10.30
2023-04-24T10:46:46.083Z,10.30
2023-04-24T10:49:13.657Z,10.30
2023-04-24T10:51:54.822Z,10.40
2023-04-24T10:54:27.594Z,10.40
2023-04-24T10:57:21.187Z,10.40
2023-04-24T11:00:11.049Z,10.50
2023-04-24T11:02:40.185Z,10.50
2023-04-24T11:05:08.517Z,10.60
2023-04-24T11:08:13.610Z,10.60
2023-04-24T11:11:22.686Z,10.60
2023-04-24T11:13:56.363Z,10.70
2023-04-24T11:16:42.356Z,10.70
2023-04-24T11:19:16.268Z,10.70
2023-04-24T11:21:58.835Z,10.70
2023-04-24T11:24:27.056Z,10.70
2023-04-24T11:27:07.714Z,10.70
2023-04-24T11:29:44.329Z,10.80
2023-04-24T11:32:28.525Z,10.80
2023-04-24T11:35:01.544Z,11.00
2023-04-24T11:37:36.093Z,11.00
2023-04-24T11:40:05.481Z,11.10
2023-04-24T11:42:52.625Z,11.10
2023-04-24T11:45:26.924Z,11.10
2023-04-24T11:47:54.562Z,11.20
2023-04-24T11:50:27.633Z,11.20
2023-04-24T11:52:54.965Z,11.30
2023-04-24T11:55:22.206Z,11.30
2023-04-24T11:57:54.740Z,11.30
2023-04-24T12:00:23.739Z,11.30
2023-04-24T12:02:52.455Z,11.30
2023-04-24T12:05:28.237Z,11.40
2023-04-24T12:07:55.753Z,11.50
2023-04-24T12:10:30.646Z,11.70
2023-04-24T12:12:59.219Z,11.70
2023-04-24T12:15:26.847Z,11.80
2023-04-24T12:17:56.338Z,11.80
2023-04-24T12:20:29.383Z,11.80
2023-04-24T12:22:58.524Z,11.80
2023-04-24T12:25:30.556Z,11.90
2023-04-24T12:28:07.021Z,12.00
2023-04-24T12:30:39.437Z,12.00
2023-04-24T12:33:06.809Z,12.10
2023-04-24T12:35:36.459Z,12.20
2023-04-24T12:38:13.342Z,12.20
2023-04-24T12:40:42.554Z,12.30
2023-04-24T12:43:17.645Z,12.40
2023-04-24T12:45:45.986Z,12.50
2023-04-24T12:48:15.220Z,12.60
2023-04-24T12:50:45.442Z,12.60
2023-04-24T12:53:13.758Z,12.60
2023-04-24T12:55:41.388Z,12.50
2023-04-24T12:58:09.130Z,12.40
2023-04-24T13:00:36.787Z,12.50
2023-04-24T13:03:04.673Z,12.40
2023-04-24T13:05:32.346Z,12.50
2023-04-24T13:07:59.736Z,12.50
2023-04-24T13:10:27.125Z,12.60
2023-04-24T13:12:54.623Z,12.70
2023-04-24T13:15:21.915Z,12.90
2023-04-24T13:17:49.165Z,13.10
2023-04-24T13:20:16.582Z,13.20
2023-04-24T13:22:43.922Z,13.20
2023-04-24T13:25:11.389Z,13.10
2023-04-24T13:27:40.458Z,13.10
2023-04-24T13:30:08.478Z,12.90
2023-04-24T13:32:36.411Z,12.80
2023-04-24T13:35:04.072Z,12.90
2023-04-24T13:37:31.403Z,13.30
2023-04-24T13:39:58.651Z,13.80
2023-04-24T13:42:26.105Z,14.00
2023-04-24T13:44:53.365Z,14.20
2023-04-24T13:47:20.898Z,14.20
2023-04-24T13:49:48.213Z,14.20
2023-04-24T13:52:15.634Z,14.00
2023-04-24T13:54:42.856Z,13.90
2023-04-24T13:57:10.270Z,13.90
2023-04-24T13:59:38.075Z,13.80
2023-04-24T14:02:05.297Z,13.90
2023-04-24T14:04:32.827Z,13.90
2023-04-24T14:07:00.397Z,14.10
2023-04-24T14:09:27.730Z,14.20
2023-04-24T14:11:55.048Z,14.70
2023-04-24T14:14:22.314Z,15.20
2023-04-24T14:16:49.545Z,15.70
2023-04-24T14:19:17.892Z,16.40
2023-04-24T14:21:45.429Z,16.90
2023-04-24T14:24:12.922Z,17.00
2023-04-24T14:26:40.231Z,17.00
2023-04-24T14:29:14.870Z,16.50
2023-04-24T14:31:43.264Z,16.00
2023-04-24T14:34:12.173Z,15.70
2023-04-24T14:36:39.385Z,16.10
2023-04-24T14:39:08.332Z,16.60
2023-04-24T14:41:37.044Z,17.00
2023-04-24T14:44:05.097Z,18.00
2023-04-24T14:46:32.725Z,18.80
2023-04-24T14:49:00.433Z,18.50
2023-04-24T14:51:27.839Z,18.10
2023-04-24T14:53:55.437Z,17.90
2023-04-24T14:56:22.692Z,17.50
2023-04-24T14:58:50.164Z,17.40
2023-04-24T15:01:18.105Z,18.10
2023-04-24T15:03:46.343Z,18.90
2023-04-24T15:06:13.982Z,19.60
2023-04-24T15:08:41.326Z,19.70
2023-04-24T15:11:09.138Z,19.30
2023-04-24T15:13:36.525Z,18.90
2023-04-24T15:16:04.029Z,18.30
2023-04-24T15:18:31.314Z,18.30
2023-04-24T15:20:58.701Z,18.60
2023-04-24T15:23:25.900Z,19.10
2023-04-24T15:25:53.185Z,18.80
2023-04-24T15:28:20.560Z,18.50
2023-04-24T15:30:47.727Z,18.30
2023-04-24T15:33:15.182Z,18.10
2023-04-24T15:35:42.553Z,18.00
2023-04-24T15:38:09.893Z,17.90
2023-04-24T15:40:37.722Z,17.60
2023-04-24T15:43:05.048Z,18.00
2023-04-24T15:45:33.546Z,19.10
2023-04-24T15:48:01.554Z,20.10
2023-04-24T15:50:29.211Z,20.70
2023-04-24T15:52:56.493Z,20.60
2023-04-24T15:55:23.838Z,20.30
2023-04-24T15:57:51.151Z,20.30
2023-04-24T16:00:18.819Z,20.40
2023-04-24T16:02:46.310Z,20.20
2023-04-24T16:05:13.860Z,19.70
2023-04-24T16:07:41.194Z,19.30
2023-04-24T16:10:09.153Z,18.60
2023-04-24T16:12:36.459Z,18.20
2023-04-24T16:15:04.238Z,17.80
2023-04-24T16:17:31.574Z,17.50
2023-04-24T16:19:58.839Z,17.20
2023-04-24T16:22:26.302Z,17.00
2023-04-24T16:24:53.538Z,16.70
2023-04-24T16:27:20.744Z,16.40
2023-04-24T16:29:48.222Z,16.20
2023-04-24T16:32:15.584Z,16.10
2023-04-24T16:34:42.885Z,15.90
2023-04-24T16:37:12.170Z,15.70
2023-04-24T16:39:43.870Z,15.70
2023-04-24T16:42:15.319Z,15.60
2023-04-24T16:44:43.439Z,15.40
2023-04-24T16:47:12.420Z,15.30
2023-04-24T16:49:39.729Z,15.20
2023-04-24T16:52:08.117Z,15.00
2023-04-24T16:54:35.892Z,14.80
2023-04-24T16:57:04.694Z,14.60
2023-04-24T16:59:33.966Z,14.50
2023-04-24T17:02:01.905Z,14.40
2023-04-24T17:04:29.619Z,14.40
2023-04-24T17:06:57.065Z,14.30
2023-04-24T17:09:24.373Z,14.30
2023-04-24T17:11:51.665Z,14.20
2023-04-24T17:14:18.958Z,14.20
2023-04-24T17:16:46.444Z,14.10
2023-04-24T17:19:13.674Z,14.00
2023-04-24T17:21:40.942Z,13.90
2023-04-24T17:24:08.256Z,13.80
2023-04-24T17:26:35.687Z,13.70
2023-04-24T17:29:03.626Z,13.70
2023-04-24T17:31:31.115Z,13.70
2023-04-24T17:33:59.744Z,13.70
2023-04-24T17:36:27.102Z,13.70
2023-04-24T17:38:54.537Z,13.70
2023-04-24T17:41:22.195Z,13.70
2023-04-24T17:43:49.568Z,13.70
2023-04-24T17:46:17.132Z,13.60
2023-04-24T17:48:44.387Z,13.60
2023-04-24T17:51:11.659Z,13.50
2023-04-24T17:53:39.509Z,13.50
2023-04-24T17:56:07.552Z,13.50
2023-04-24T17:58:35.442Z,13.50
2023-04-24T18:01:02.853Z,13.50
2023-04-24T18:03:30.636Z,13.40
2023-04-24T18:05:58.066Z,13.40
2023-04-24T18:08:25.687Z,13.40
2023-04-24T18:10:52.995Z,13.40
2023-04-24T18:13:20.242Z,13.30
2023-04-24T18:15:47.570Z,13.30
2023-04-24T18:18:15.291Z,13.20
2023-04-24T18:20:42.562Z,13.20
2023-04-24T18:23:09.819Z,13.10
2023-04-24T18:25:37.211Z,13.10
2023-04-24T18:28:04.664Z,13.10
2023-04-24T18:30:32.463Z,13.00
2023-04-24T18:33:00.013Z,13.00
2023-04-24T18:35:27.426Z,13.00
2023-04-24T18:37:54.684Z,12.90
2023-04-24T18:40:22.176Z,12.80
2023-04-24T18:42:49.613Z,12.70
2023-04-24T18:45:16.950Z,12.60
2023-04-24T18:47:44.310Z,12.60
2023-04-24T18:50:12.515Z,12.50
2023-04-24T18:52:40.596Z,12.40
2023-04-24T18:55:09.694Z,12.40
2023-04-24T18:57:37.074Z,12.30
2023-04-24T19:00:05.115Z,12.30
2023-04-24T19:02:34.399Z,12.20
2023-04-24T19:05:02.155Z,12.20
2023-04-24T19:07:29.467Z,12.20
2023-04-24T19:09:56.853Z,12.10
2023-04-24T19:12:24.081Z,12.10
2023-04-24T19:14:52.037Z,12.10
2023-04-24T19:17:25.065Z,12.00
2023-04-24T19:19:52.549Z,11.80
2023-04-24T19:22:23.074Z,11.80
2023-04-24T19:24:50.435Z,11.90
2023-04-24T19:27:17.764Z,11.80
2023-04-24T19:29:45.122Z,11.70
2023-04-24T19:32:12.461Z,11.70
2023-04-24T19:34:40.727Z,11.60
2023-04-24T19:37:09.358Z,11.60
2023-04-24T19:39:36.880Z,11.70
2023-04-24T19:42:07.346Z,11.70
2023-04-24T19:44:35.320Z,11.60
2023-04-24T19:47:02.736Z,11.60
2023-04-24T19:49:31.612Z,11.60
2023-04-24T19:52:01.547Z,11.60
2023-04-24T19:54:29.497Z,11.50
2023-04-24T19:56:56.994Z,11.50
2023-04-24T19:59:24.810Z,11.50
2023-04-24T20:01:52.853Z,11.50
2023-04-24T20:04:23.192Z,11.50
2023-04-24T20:06:50.940Z,11.50
2023-04-24T20:09:18.245Z,11.40
2023-04-24T20:11:50.245Z,11.40
2023-04-24T20:14:18.460Z,11.40
2023-04-24T20:16:46.665Z,11.30
2023-04-24T20:19:14.324Z,11.40
2023-04-24T20:21:41.660Z,11.30
2023-04-24T20:24:10.685Z,11.30
2023-04-24T20:26:38.376Z,11.30
2023-04-24T20:29:06.804Z,11.20
2023-04-24T20:31:34.188Z,11.20
2023-04-24T20:34:01.730Z,11.20
2023-04-24T20:36:29.040Z,11.20
2023-04-24T20:38:57.096Z,11.20
2023-04-24T20:41:24.781Z,11.10
2023-04-24T20:43:52.779Z,11.10
2023-04-24T20:46:20.108Z,11.10
2023-04-24T20:48:47.478Z,11.00
2023-04-24T20:51:14.891Z,11.00
2023-04-24T20:53:42.197Z,10.90
2023-04-24T20:56:11.298Z,10.80
2023-04-24T20:58:38.559Z,10.80
2023-04-24T21:01:06.244Z,10.80
2023-04-24T21:03:33.848Z,10.80
2023-04-24T21:06:01.255Z,10.80
2023-04-24T21:08:28.538Z,10.70
2023-04-24T21:10:55.856Z,10.70
2023-04-24T21:13:23.094Z,10.60
2023-04-24T21:15:50.905Z,10.60
2023-04-24T21:18:18.343Z,10.60
2023-04-24T21:20:45.882Z,10.60
2023-04-24T21:23:13.146Z,10.50
2023-04-24T21:25:40.534Z,10.40
2023-04-24T21:28:08.053Z,10.40
2023-04-24T21:30:35.300Z,10.40
2023-04-24T21:33:02.608Z,10.40
2023-04-24T21:35:30.378Z,10.30
2023-04-24T21:37:57.730Z,10.30
2023-04-24T21:40:24.985Z,10.30
2023-04-24T21:42:52.857Z,10.30
2023-04-24T21:45:20.476Z,10.30
2023-04-24T21:47:47.716Z,10.20
2023-04-24T21:50:14.993Z,10.20
2023-04-24T21:52:42.248Z,10.20
2023-04-24T21:55:09.615Z,10.20
2023-04-24T21:57:36.912Z,10.20
2023-04-24T22:00:07.780Z,10.20
2023-04-24T22:02:35.712Z,10.10
2023-04-24T22:05:04.445Z,10.10
2023-04-24T22:07:34.272Z,10.00
2023-04-24T22:10:01.637Z,10.00
2023-04-24T22:12:29.086Z,10.10
2023-04-24T22:14:56.413Z,10.10
2023-04-24T22:17:24.278Z,10.00
2023-04-24T22:19:51.514Z,10.00
2023-04-24T22:22:18.790Z,10.00
2023-04-24T22:24:46.024Z,10.00
2023-04-24T22:27:13.275Z,10.00
2023-04-24T22:29:40.730Z,10.00
2023-04-24T22:32:08.005Z,10.10
2023-04-24T22:34:35.235Z,10.00
2023-04-24T22:37:02.536Z,10.00
2023-04-24T22:39:29.970Z,10.00
2023-04-24T22:41:57.483Z,9.90
2023-04-24T22:44:24.795Z,9.90
2023-04-24T22:46:52.153Z,9.90
2023-04-24T22:49:21.394Z,9.80
2023-04-24T22:51:48.715Z,9.90
2023-04-24T22:54:15.898Z,9.90
2023-04-24T22:56:43.145Z,9.90
2023-04-24T22:59:10.543Z,10.00
2023-04-24T23:01:37.828Z,10.00
2023-04-24T23:04:05.232Z,10.00
2023-04-24T23:06:32.548Z,10.00
2023-04-24T23:08:59.707Z,9.90
2023-04-24T23:11:27.027Z,9.80
2023-04-24T23:13:55.239Z,9.70
2023-04-24T23:16:22.787Z,9.70
2023-04-24T23:18:49.973Z,9.80
2023-04-24T23:21:17.430Z,9.80
2023-04-24T23:23:44.647Z,9.80
2023-04-24T23:26:11.956Z,9.80
2023-04-24T23:28:40.356Z,9.80
2023-04-24T23:31:07.572Z,9.70
2023-04-24T23:33:34.869Z,9.70
2023-04-24T23:36:02.254Z,9.70
2023-04-24T23:38:36.543Z,9.70
2023-04-24T23:41:10.467Z,9.60
2023-04-24T23:43:37.835Z,9.60
2023-04-24T23:46:05.118Z,9.60
2023-04-24T23:48:32.522Z,9.60
2023-04-24T23:51:00.042Z,9.50
2023-04-24T23:53:27.613Z,9.40
2023-04-24T23:55:55.086Z,9.40
2023-04-24T23:58:22.543Z,9.50
